Time;durP1;ratioP1;P1;durP2;ratioP2;P2;SDS_P1;SDS_P2;PMS_P1;PMS_P2;Temp;Humidity;BMP_temperature;BMP_pressure;BME280_temperature;BME280_humidity;BME280_pressure;Samples;Min_cycle;Max_cycle;Signal;HPM_P1;HPM_P2
2024/01/20 00:01:53;;;;;;;21.38;12.05;;;;;;;1.04;83.70;99189.91;4234875;27;20214;-79
2024/01/20 00:03:56;;;;;;;15.70;10.70;;;;;;;1.03;83.95;99181.34;4241159;27;20200;-79
2024/01/20 00:06:00;;;;;;;19.80;12.02;;;;;;;1.04;83.99;99182.22;4224368;27;20330;-79
2024/01/20 00:08:03;;;;;;;17.35;9.82;;;;;;;1.06;83.23;99177.91;4255019;27;20244;-80
2024/01/20 00:10:10;;;;;;;19.45;11.25;;;;;;;1.05;83.17;99176.19;4240082;27;20207;-79
2024/01/20 00:12:15;;;;;;;17.73;10.55;;;;;;;1.05;83.54;99177.06;4242412;27;20217;-81
2024/01/20 00:14:19;;;;;;;13.25;9.02;;;;;;;1.03;83.30;99172.78;4227884;27;20230;-80
2024/01/20 00:16:22;;;;;;;18.13;11.10;;;;;;;0.99;82.40;99179.69;4243516;27;20648;-79
2024/01/20 00:18:26;;;;;;;20.85;11.38;;;;;;;0.95;82.53;99184.91;4254608;27;20696;-80
2024/01/20 00:20:29;;;;;;;15.48;10.50;;;;;;;0.94;82.97;99183.19;4226205;27;20257;-80
2024/01/20 00:22:33;;;;;;;13.38;9.25;;;;;;;0.95;83.75;99182.34;4225457;27;20658;-79
2024/01/20 00:24:36;;;;;;;18.50;11.85;;;;;;;0.96;83.16;99186.56;4256259;27;20582;-79
2024/01/20 00:26:41;;;;;;;18.90;11.68;;;;;;;0.98;83.38;99195.13;4223763;28;20203;-79
2024/01/20 00:28:45;;;;;;;18.42;11.02;;;;;;;0.97;83.21;99196.81;4217240;27;20228;-80
2024/01/20 00:30:48;;;;;;;15.88;10.02;;;;;;;0.98;82.99;99201.09;4232603;27;20218;-79
2024/01/20 00:32:52;;;;;;;14.65;8.80;;;;;;;0.99;83.05;99201.94;4222805;27;20341;-80
2024/01/20 00:34:55;;;;;;;14.30;9.70;;;;;;;0.92;82.48;99196.91;4239384;27;20251;-79
2024/01/20 00:37:10;;;;;;;15.15;9.02;;;;;;;0.90;82.78;99186.66;4227381;27;20298;-80
2024/01/20 00:39:14;;;;;;;14.13;8.05;;;;;;;0.87;83.21;99175.59;4226479;27;20701;-79
2024/01/20 00:41:18;;;;;;;18.73;9.30;;;;;;;0.85;82.66;99167.06;4256048;27;20204;-80
2024/01/20 00:43:26;;;;;;;15.63;8.43;;;;;;;0.77;82.88;99169.72;4260457;27;20201;-79
2024/01/20 00:45:29;;;;;;;12.85;8.52;;;;;;;0.72;82.82;99170.66;4226090;27;20272;-79
2024/01/20 00:47:32;;;;;;;19.65;12.18;;;;;;;0.77;83.76;99176.59;4242832;27;20271;-80
2024/01/20 00:49:39;;;;;;;16.50;10.30;;;;;;;0.80;84.06;99174.81;4221677;28;20200;-81
2024/01/20 00:51:42;;;;;;;19.10;11.25;;;;;;;0.83;84.12;99179.91;4253078;27;20691;-80
2024/01/20 00:53:45;;;;;;;17.33;9.73;;;;;;;0.83;83.47;99185.06;4221914;27;20196;-80
2024/01/20 00:55:49;;;;;;;17.08;10.95;;;;;;;0.84;83.16;99184.16;4241988;27;20195;-79
2024/01/20 00:57:54;;;;;;;20.40;13.27;;;;;;;0.85;84.18;99187.59;4226207;27;20291;-80
2024/01/20 00:59:58;;;;;;;19.65;11.48;;;;;;;0.88;84.20;99190.97;4244331;27;20215;-80
2024/01/20 01:02:01;;;;;;;17.25;11.10;;;;;;;0.89;84.31;99192.69;4255478;27;20306;-79
2024/01/20 01:04:05;;;;;;;18.88;10.75;;;;;;;0.93;84.59;99197.75;4224142;27;20236;-79
2024/01/20 01:06:08;;;;;;;17.35;11.40;;;;;;;0.96;84.05;99196.84;4233030;27;20718;-80
2024/01/20 01:08:10;;;;;;;17.80;11.20;;;;;;;0.99;85.09;99204.50;4219205;27;20208;-80
2024/01/20 01:10:14;;;;;;;17.45;11.65;;;;;;;0.98;84.50;99201.09;4234703;27;20687;-79
2024/01/20 01:12:16;;;;;;;18.63;11.82;;;;;;;1.03;84.21;99206.19;4236560;27;20607;-79
2024/01/20 01:14:20;;;;;;;15.65;11.45;;;;;;;1.07;84.73;99205.28;4230443;27;20254;-79
2024/01/20 01:16:24;;;;;;;17.52;11.32;;;;;;;1.05;83.59;99205.28;4253350;27;20660;-79
2024/01/20 01:18:28;;;;;;;18.05;10.68;;;;;;;1.02;83.43;99201.91;4238003;27;20968;-79
2024/01/20 01:20:31;;;;;;;16.80;9.25;;;;;;;1.02;83.50;99202.78;4252739;27;20279;-79
2024/01/20 01:22:34;;;;;;;13.85;9.60;;;;;;;1.01;83.27;99207.94;4235598;27;20233;-80
2024/01/20 01:24:38;;;;;;;18.60;9.80;;;;;;;1.02;83.62;99213.03;4238532;27;20257;-79
2024/01/20 01:26:41;;;;;;;16.00;10.65;;;;;;;1.06;83.45;99213.84;4234441;27;20313;-79
2024/01/20 01:28:46;;;;;;;18.23;10.40;;;;;;;1.07;84.23;99208.69;4251735;27;20204;-80
2024/01/20 01:30:49;;;;;;;15.95;10.90;;;;;;;1.10;84.44;99212.94;4251590;27;20201;-79
2024/01/20 01:32:54;;;;;;;18.33;10.77;;;;;;;1.11;84.58;99212.91;4233845;27;20762;-80
2024/01/20 01:34:57;;;;;;;16.95;10.52;;;;;;;1.13;84.15;99218.03;4237162;27;20195;-80
2024/01/20 01:37:00;;;;;;;14.60;9.57;;;;;;;1.01;84.52;99215.63;4225210;27;20208;-80
2024/01/20 01:39:04;;;;;;;17.27;10.27;;;;;;;0.89;84.25;99218.34;4239905;27;20349;-79
2024/01/20 01:41:07;;;;;;;16.25;10.10;;;;;;;0.82;84.08;99219.28;4256519;27;20770;-79
2024/01/20 01:43:10;;;;;;;18.38;10.80;;;;;;;0.80;84.17;99221.03;4240381;27;20209;-80
2024/01/20 01:45:14;;;;;;;14.65;9.93;;;;;;;0.68;84.15;99221.16;4232982;27;20328;-79
2024/01/20 01:47:16;;;;;;;19.10;11.45;;;;;;;0.72;84.92;99227.97;4235414;27;20215;-80
2024/01/20 01:49:21;;;;;;;17.80;10.02;;;;;;;0.74;84.96;99227.97;4253272;27;20226;-80
2024/01/20 01:51:24;;;;;;;17.30;9.98;;;;;;;0.66;84.59;99227.16;4224264;27;20207;-79
2024/01/20 01:53:27;;;;;;;19.63;11.60;;;;;;;0.69;84.41;99238.28;4220162;27;20240;-80
2024/01/20 01:55:31;;;;;;;16.70;10.38;;;;;;;0.70;84.62;99231.41;4239411;27;20244;-79
2024/01/20 01:57:35;;;;;;;20.30;11.45;;;;;;;0.71;84.99;99228.81;4241099;27;20246;-79
2024/01/20 01:59:38;;;;;;;17.40;10.90;;;;;;;0.73;85.69;99234.78;4249378;27;20222;-80
2024/01/20 02:01:41;;;;;;;16.42;10.32;;;;;;;0.77;85.24;99230.50;4260439;27;20213;-79
2024/01/20 02:03:45;;;;;;;20.63;11.68;;;;;;;0.80;84.49;99221.03;4222890;27;20203;-79
2024/01/20 02:05:50;;;;;;;17.95;10.85;;;;;;;0.78;84.37;99212.47;4221858;27;20774;-79
2024/01/20 02:07:53;;;;;;;16.10;10.73;;;;;;;0.78;84.69;99227.88;4241857;27;20688;-80
2024/01/20 02:09:56;;;;;;;18.90;11.35;;;;;;;0.75;84.67;99216.81;4239716;27;20264;-79
2024/01/20 02:12:00;;;;;;;19.30;11.10;;;;;;;0.72;84.49;99216.84;4250900;27;20311;-80
2024/01/20 02:14:03;;;;;;;19.83;12.40;;;;;;;0.71;85.29;99220.28;4224656;28;20754;-79
2024/01/20 02:16:07;;;;;;;16.60;10.52;;;;;;;0.71;85.06;99223.69;4235601;27;20306;-79
2024/01/20 02:18:10;;;;;;;19.77;11.00;;;;;;;0.60;85.06;99210.16;4218718;27;20658;-79
2024/01/20 02:20:13;;;;;;;17.23;11.13;;;;;;;0.54;84.80;99212.78;4251132;27;20703;-80
2024/01/20 02:22:18;;;;;;;21.65;12.73;;;;;;;0.55;84.94;99213.63;4234216;27;20254;-79
2024/01/20 02:24:21;;;;;;;20.80;13.48;;;;;;;0.57;84.53;99211.88;4245135;27;20266;-79
2024/01/20 02:26:24;;;;;;;17.70;11.05;;;;;;;0.57;84.36;99212.75;4224836;27;20203;-79
2024/01/20 02:28:27;;;;;;;18.95;10.32;;;;;;;0.56;84.48;99216.19;4235390;27;20262;-79
2024/01/20 02:30:31;;;;;;;18.27;11.10;;;;;;;0.53;84.68;99217.94;4233216;27;20697;-79
2024/01/20 02:32:34;;;;;;;19.10;11.82;;;;;;;0.46;85.08;99213.72;4250098;27;20191;-79
2024/01/20 02:34:39;;;;;;;20.05;12.05;;;;;;;0.42;85.03;99219.75;4247708;27;20203;-79
2024/01/20 02:36:43;;;;;;;24.17;14.07;;;;;;;0.48;85.34;99215.41;4222842;28;20595;-79
2024/01/20 02:38:48;;;;;;;25.40;14.50;;;;;;;0.46;85.83;99209.44;4249507;27;20199;-79
2024/01/20 02:40:51;;;;;;;29.58;14.02;;;;;;;0.51;86.38;99217.06;4232050;27;20658;-79
2024/01/20 02:42:53;;;;;;;21.38;12.65;;;;;;;0.48;85.78;99222.25;4222999;27;20207;-79
2024/01/20 02:44:56;;;;;;;21.27;12.48;;;;;;;0.39;85.40;99217.22;4237289;27;20219;-79
2024/01/20 02:46:59;;;;;;;24.90;14.15;;;;;;;0.41;86.00;99230.88;4237312;27;20259;-78
2024/01/20 02:49:02;;;;;;;23.27;13.82;;;;;;;0.45;86.02;99232.53;4233811;27;20315;-79
2024/01/20 02:51:05;;;;;;;23.23;13.40;;;;;;;0.42;85.82;99232.56;4222192;27;20203;-80
2024/01/20 02:53:08;;;;;;;25.42;14.45;;;;;;;0.42;86.04;99237.69;4235430;27;20215;-82
2024/01/20 02:55:13;;;;;;;21.13;12.23;;;;;;;0.42;85.89;99236.84;4254175;27;20302;-81
2024/01/20 02:57:17;;;;;;;22.85;13.25;;;;;;;0.43;85.60;99236.00;4214076;28;20347;-82
2024/01/20 02:59:20;;;;;;;19.05;12.13;;;;;;;0.45;86.01;99231.69;4210747;27;20219;-82
2024/01/20 03:01:23;;;;;;;22.63;13.05;;;;;;;0.48;86.56;99243.63;4254132;27;20229;-82
2024/01/20 03:03:27;;;;;;;24.50;13.70;;;;;;;0.52;86.09;99244.44;4218764;28;20204;-82
2024/01/20 03:05:30;;;;;;;22.75;13.73;;;;;;;0.53;85.84;99246.16;4236532;27;20318;-82
2024/01/20 03:07:33;;;;;;;23.52;12.95;;;;;;;0.52;85.85;99240.16;4251988;27;20211;-82
2024/01/20 03:09:36;;;;;;;26.40;14.25;;;;;;;0.53;85.60;99252.13;4235277;27;20268;-82
2024/01/20 03:11:41;;;;;;;23.45;13.90;;;;;;;0.60;85.65;99263.16;4217885;28;20205;-82
2024/01/20 03:13:44;;;;;;;26.13;14.35;;;;;;;0.59;85.33;99259.75;4236050;27;20822;-82
2024/01/20 03:15:47;;;;;;;20.58;13.15;;;;;;;0.60;85.68;99269.16;4235314;27;20599;-82
2024/01/20 03:17:50;;;;;;;20.90;13.00;;;;;;;0.60;86.03;99270.84;4235910;27;20223;-82
2024/01/20 03:19:54;;;;;;;29.45;15.05;;;;;;;0.60;86.51;99274.28;4233988;27;20623;-81
2024/01/20 03:21:56;;;;;;;26.42;14.45;;;;;;;0.62;85.64;99277.69;4242231;27;20226;-82
2024/01/20 03:23:59;;;;;;;24.02;13.93;;;;;;;0.68;85.79;99279.34;4233742;27;20244;-82
2024/01/20 03:26:07;;;;;;;21.67;12.68;;;;;;;0.65;85.89;99271.69;4248390;27;20206;-82
2024/01/20 03:28:14;;;;;;;20.08;12.50;;;;;;;0.63;85.21;99266.56;4236615;27;20199;-82
2024/01/20 03:30:18;;;;;;;25.60;15.18;;;;;;;0.61;86.07;99270.84;4251914;27;20219;-82
2024/01/20 03:32:21;;;;;;;27.30;15.60;;;;;;;0.65;85.57;99266.56;4237088;27;20652;-82
2024/01/20 03:34:24;;;;;;;24.33;13.50;;;;;;;0.64;86.19;99275.94;4238375;27;20203;-81
2024/01/20 03:36:27;;;;;;;25.25;12.93;;;;;;;0.65;85.58;99277.66;4238250;27;20217;-82
2024/01/20 03:38:31;;;;;;;23.50;13.85;;;;;;;0.65;85.57;99280.22;4256354;27;20278;-82
2024/01/20 03:40:34;;;;;;;21.23;13.85;;;;;;;0.63;85.15;99275.94;4244100;27;20766;-82
2024/01/20 03:42:37;;;;;;;24.63;13.93;;;;;;;0.57;85.66;99276.03;4256544;27;20727;-82
2024/01/20 03:44:41;;;;;;;27.23;14.70;;;;;;;0.56;86.14;99274.34;4219667;27;20209;-82
2024/01/20 03:46:45;;;;;;;24.92;14.90;;;;;;;0.58;86.41;99260.59;4222286;27;20211;-82
2024/01/20 03:48:48;;;;;;;21.83;13.57;;;;;;;0.61;86.14;99263.13;4226894;27;20685;-82
2024/01/20 03:50:51;;;;;;;24.08;13.40;;;;;;;0.57;85.20;99261.50;4222814;27;20701;-81
2024/01/20 03:52:53;;;;;;;26.00;14.48;;;;;;;0.56;85.51;99257.22;4252869;27;20211;-82
2024/01/20 03:54:56;;;;;;;24.33;13.75;;;;;;;0.53;85.81;99257.25;4243212;27;20633;-82
2024/01/20 03:56:59;;;;;;;26.00;15.10;;;;;;;0.52;85.45;99252.97;4240801;27;20294;-82
2024/01/20 03:59:03;;;;;;;22.63;12.73;;;;;;;0.46;85.62;99254.75;4230668;27;20215;-82
2024/01/20 04:01:06;;;;;;;22.85;12.52;;;;;;;0.50;85.50;99262.41;4238796;27;20254;-82
2024/01/20 04:03:09;;;;;;;27.45;13.95;;;;;;;0.48;85.01;99264.16;4224331;27;20815;-82
2024/01/20 04:05:12;;;;;;;25.75;14.75;;;;;;;0.44;85.49;99271.91;4236812;27;20216;-82
2024/01/20 04:07:16;;;;;;;24.55;13.60;;;;;;;0.42;85.06;99267.63;4234905;27;20708;-82
2024/01/20 04:09:19;;;;;;;22.75;13.68;;;;;;;0.39;85.11;99263.38;4223984;27;20200;-82
2024/01/20 04:11:29;;;;;;;22.85;13.15;;;;;;;0.35;85.01;99263.44;4235316;27;20206;-82
2024/01/20 04:13:32;;;;;;;29.45;14.02;;;;;;;0.37;85.70;99270.25;4237304;27;20343;-82
2024/01/20 04:15:35;;;;;;;24.08;14.13;;;;;;;0.39;84.75;99278.75;4241390;27;20287;-82
2024/01/20 04:17:39;;;;;;;23.65;14.10;;;;;;;0.41;85.03;99276.19;4221580;27;20258;-82
2024/01/20 04:19:42;;;;;;;28.75;14.80;;;;;;;0.43;84.94;99275.31;4238375;27;20215;-82
2024/01/20 04:21:44;;;;;;;27.60;15.60;;;;;;;0.45;85.21;99277.88;4238513;27;20239;-82
2024/01/20 04:23:47;;;;;;;27.77;16.17;;;;;;;0.46;84.72;99283.81;4238274;27;20286;-82
2024/01/20 04:25:50;;;;;;;23.70;13.75;;;;;;;0.45;84.93;99283.00;4239480;27;20191;-82
2024/01/20 04:27:53;;;;;;;31.80;15.82;;;;;;;0.46;84.76;99286.38;4239080;27;20200;-82
2024/01/20 04:29:56;;;;;;;35.10;16.17;;;;;;;0.44;84.84;99282.16;4254716;27;20290;-82
2024/01/20 04:32:00;;;;;;;24.75;14.18;;;;;;;0.47;84.72;99282.97;4236995;27;20196;-82
2024/01/20 04:34:04;;;;;;;27.70;14.77;;;;;;;0.50;84.87;99287.22;4257592;27;20208;-82
2024/01/20 04:36:08;;;;;;;25.98;15.77;;;;;;;0.48;84.71;99294.06;4240147;27;20208;-82
2024/01/20 04:38:12;;;;;;;30.77;15.70;;;;;;;0.51;84.99;99297.47;4237869;27;20192;-82
2024/01/20 04:40:16;;;;;;;25.55;15.52;;;;;;;0.54;85.15;99305.16;4239608;27;20246;-82
2024/01/20 04:42:19;;;;;;;30.25;16.30;;;;;;;0.56;85.25;99302.56;4239078;27;20248;-82
2024/01/20 04:44:23;;;;;;;31.85;16.40;;;;;;;0.58;84.40;99303.38;4250102;27;20204;-82
2024/01/20 04:46:27;;;;;;;25.95;15.65;;;;;;;0.59;84.61;99307.66;4250496;27;20644;-82
2024/01/20 04:48:31;;;;;;;30.73;17.50;;;;;;;0.61;84.61;99305.91;4217951;27;20208;-82
2024/01/20 04:50:35;;;;;;;28.15;17.10;;;;;;;0.62;84.35;99311.03;4240171;27;20284;-82
2024/01/20 04:52:39;;;;;;;25.73;15.43;;;;;;;0.62;84.09;99308.47;4225592;27;20203;-82
2024/01/20 04:54:42;;;;;;;30.88;16.02;;;;;;;0.64;84.42;99311.88;4250852;27;20583;-82
2024/01/20 04:56:45;;;;;;;27.77;14.80;;;;;;;0.61;84.14;99309.31;4251756;27;21979;-82
2024/01/20 04:58:48;;;;;;;28.60;16.33;;;;;;;0.61;84.61;99296.50;4243768;27;20204;-82
2024/01/20 05:00:51;;;;;;;32.30;17.27;;;;;;;0.61;84.34;99303.34;4233921;27;20208;-82
2024/01/20 05:02:55;;;;;;;31.23;17.55;;;;;;;0.59;84.71;99298.25;4226226;27;20196;-81
2024/01/20 05:04:57;;;;;;;30.73;16.88;;;;;;;0.58;84.77;99291.41;4255512;27;20212;-82
2024/01/20 05:07:01;;;;;;;29.92;17.30;;;;;;;0.58;85.03;99296.53;4254910;27;20217;-82
2024/01/20 05:09:05;;;;;;;31.45;17.77;;;;;;;0.58;84.14;99301.66;4236448;27;20286;-82
2024/01/20 05:11:09;;;;;;;33.35;17.10;;;;;;;0.60;84.81;99299.94;4223260;28;20192;-82
2024/01/20 05:13:12;;;;;;;29.88;16.92;;;;;;;0.62;84.42;99300.78;4250828;27;20212;-82
2024/01/20 05:15:18;;;;;;;28.27;16.52;;;;;;;0.61;85.06;99305.91;4232861;27;20257;-81
2024/01/20 05:17:21;;;;;;;33.58;17.58;;;;;;;0.62;84.50;99315.34;4246867;27;20198;-83
2024/01/20 05:19:24;;;;;;;33.05;17.75;;;;;;;0.64;84.58;99306.72;4213268;28;20200;-82
2024/01/20 05:21:28;;;;;;;29.10;17.13;;;;;;;0.63;84.82;99299.03;4237685;27;20322;-82
2024/01/20 05:23:32;;;;;;;30.48;16.95;;;;;;;0.63;84.46;99310.19;4236728;27;20296;-82
2024/01/20 05:25:35;;;;;;;27.88;16.50;;;;;;;0.60;84.08;99305.09;4239295;27;20191;-81
2024/01/20 05:27:39;;;;;;;26.13;15.80;;;;;;;0.57;84.42;99310.25;4253831;27;20230;-82
2024/01/20 05:29:42;;;;;;;26.45;15.30;;;;;;;0.55;83.86;99306.81;4234480;27;20223;-82
2024/01/20 05:31:45;;;;;;;28.13;16.60;;;;;;;0.56;84.78;99310.25;4253595;27;20289;-82
2024/01/20 05:33:47;;;;;;;31.02;17.25;;;;;;;0.55;84.73;99319.66;4238463;27;20290;-82
2024/01/20 05:35:50;;;;;;;27.67;15.18;;;;;;;0.55;83.83;99309.38;4253795;27;20671;-82
2024/01/20 05:37:53;;;;;;;26.27;16.42;;;;;;;0.55;83.78;99311.94;4216283;27;20208;-82
2024/01/20 05:39:58;;;;;;;34.88;18.73;;;;;;;0.53;84.17;99308.56;4234524;27;20199;-82
2024/01/20 05:42:01;;;;;;;27.88;16.20;;;;;;;0.53;83.29;99321.38;4219510;27;20221;-82
2024/01/20 05:44:05;;;;;;;32.13;17.13;;;;;;;0.53;83.92;99326.53;4237759;27;20203;-82
2024/01/20 05:46:08;;;;;;;28.55;17.23;;;;;;;0.55;83.63;99327.34;4221791;27;20694;-83
2024/01/20 05:48:11;;;;;;;29.75;16.83;;;;;;;0.51;83.64;99333.38;4235199;27;20713;-82
2024/01/20 05:50:14;;;;;;;27.58;15.90;;;;;;;0.43;83.49;99333.47;4231534;27;20195;-82
2024/01/20 05:52:17;;;;;;;28.42;16.17;;;;;;;0.39;83.79;99340.31;4233413;27;20295;-82
2024/01/20 05:54:20;;;;;;;31.55;18.38;;;;;;;0.39;84.02;99340.31;4252526;27;20209;-82
2024/01/20 05:56:25;;;;;;;28.88;17.60;;;;;;;0.43;83.72;99351.44;4247092;27;20264;-82
2024/01/20 05:58:27;;;;;;;30.60;18.55;;;;;;;0.46;83.81;99352.25;4253786;27;20280;-82
2024/01/20 06:00:31;;;;;;;26.05;15.73;;;;;;;0.44;84.49;99353.09;4250012;27;20206;-82
2024/01/20 06:02:34;;;;;;;26.35;15.80;;;;;;;0.40;84.18;99349.72;4221826;27;20323;-82
2024/01/20 06:04:37;;;;;;;27.52;15.82;;;;;;;0.38;84.23;99358.31;4231723;27;20298;-82
2024/01/20 06:06:40;;;;;;;25.52;15.90;;;;;;;0.38;84.24;99354.03;4238444;27;20227;-82
2024/01/20 06:08:44;;;;;;;33.45;17.48;;;;;;;0.41;84.17;99355.69;4232328;27;20204;-82
2024/01/20 06:10:47;;;;;;;31.65;18.00;;;;;;;0.40;84.02;99362.56;4230706;27;20218;-82
2024/01/20 06:12:51;;;;;;;34.35;18.80;;;;;;;0.40;84.43;99361.72;4235568;27;20200;-82
2024/01/20 06:14:54;;;;;;;32.47;17.85;;;;;;;0.41;84.42;99366.81;4234708;27;20253;-82
2024/01/20 06:16:58;;;;;;;28.10;16.15;;;;;;;0.39;84.19;99365.13;4247819;27;20202;-82
2024/01/20 06:19:01;;;;;;;29.95;17.73;;;;;;;0.39;83.99;99368.53;4255147;27;20226;-82
2024/01/20 06:21:05;;;;;;;31.15;17.60;;;;;;;0.40;84.67;99361.72;4230801;27;20239;-82
2024/01/20 06:23:08;;;;;;;33.72;18.50;;;;;;;0.40;83.73;99357.41;4220173;28;20790;-80
2024/01/20 06:25:13;;;;;;;28.52;16.60;;;;;;;0.39;83.63;99360.00;4246079;27;20206;-79
2024/01/20 06:27:16;;;;;;;28.42;16.55;;;;;;;0.38;83.25;99359.16;4247542;27;20206;-79
2024/01/20 06:29:21;;;;;;;25.40;15.65;;;;;;;0.40;83.62;99365.13;4215133;28;20201;-79
2024/01/20 06:31:24;;;;;;;30.05;16.67;;;;;;;0.40;83.12;99365.13;4234606;27;20219;-79
2024/01/20 06:33:26;;;;;;;26.33;15.55;;;;;;;0.36;83.00;99370.28;4239521;27;20261;-79
2024/01/20 06:35:30;;;;;;;31.10;18.45;;;;;;;0.36;83.34;99375.41;4235035;27;20648;-79
2024/01/20 06:37:32;;;;;;;36.67;19.55;;;;;;;0.30;83.35;99373.75;4219710;27;20763;-80
2024/01/20 06:39:35;;;;;;;29.67;17.55;;;;;;;0.35;83.39;99386.56;4236881;27;20207;-79
2024/01/20 06:41:38;;;;;;;31.40;18.23;;;;;;;0.36;83.97;99380.53;4240083;27;20244;-79
2024/01/20 06:43:41;;;;;;;34.70;18.48;;;;;;;0.39;84.18;99381.34;4237967;27;20230;-79
2024/01/20 06:45:46;;;;;;;32.67;19.55;;;;;;;0.42;84.09;99388.19;4237990;27;20307;-80
2024/01/20 06:47:49;;;;;;;32.75;18.15;;;;;;;0.39;84.01;99388.22;4234590;27;20195;-79
2024/01/20 06:49:53;;;;;;;38.13;18.83;;;;;;;0.41;83.79;99391.59;4221879;27;20204;-79
2024/01/20 06:51:56;;;;;;;31.25;17.40;;;;;;;0.39;83.97;99389.03;4234837;27;20198;-79
2024/01/20 06:54:00;;;;;;;35.40;19.42;;;;;;;0.39;84.44;99391.63;4250445;27;20206;-79
2024/01/20 06:56:02;;;;;;;34.25;20.20;;;;;;;0.40;84.11;99398.47;4236462;27;20250;-79
2024/01/20 06:58:05;;;;;;;32.30;17.92;;;;;;;0.41;83.76;99397.59;4219712;28;20265;-79
2024/01/20 07:00:09;;;;;;;33.08;18.95;;;;;;;0.44;84.26;99401.84;4233854;27;20282;-79
2024/01/20 07:02:14;;;;;;;30.92;18.00;;;;;;;0.46;84.15;99404.38;4231906;27;20223;-80
2024/01/20 07:04:17;;;;;;;32.70;19.33;;;;;;;0.43;84.58;99402.72;4223482;28;20203;-79
2024/01/20 07:06:23;;;;;;;33.13;18.70;;;;;;;0.43;83.70;99400.16;4240612;27;20608;-79
2024/01/20 07:08:26;;;;;;;29.42;16.92;;;;;;;0.49;83.43;99400.94;4221863;28;20200;-79
2024/01/20 07:10:29;;;;;;;28.02;16.88;;;;;;;0.38;83.34;99404.47;4238173;27;21067;-79
2024/01/20 07:12:32;;;;;;;25.88;15.38;;;;;;;0.32;82.77;99409.66;4243792;27;20238;-79
2024/01/20 07:14:35;;;;;;;30.02;15.98;;;;;;;0.30;83.24;99411.34;4239415;27;20263;-80
2024/01/20 07:16:38;;;;;;;31.60;19.52;;;;;;;0.29;83.81;99419.94;4237424;27;20199;-79
2024/01/20 07:18:42;;;;;;;30.55;16.63;;;;;;;0.28;83.93;99419.06;4244752;27;20209;-79
2024/01/20 07:20:45;;;;;;;31.42;17.63;;;;;;;0.28;83.67;99426.75;4215766;28;20235;-80
2024/01/20 07:22:49;;;;;;;25.88;16.55;;;;;;;0.34;84.25;99428.44;4234371;27;20233;-80
2024/01/20 07:24:54;;;;;;;28.45;16.92;;;;;;;0.33;83.76;99426.72;4254487;27;20202;-79
2024/01/20 07:26:57;;;;;;;27.77;16.30;;;;;;;0.36;83.72;99437.84;4237212;27;20713;-79
2024/01/20 07:29:00;;;;;;;27.42;16.27;;;;;;;0.31;83.94;99434.44;4254046;27;20222;-80
2024/01/20 07:31:04;;;;;;;27.80;16.20;;;;;;;0.30;83.53;99440.44;4212834;28;20283;-79
2024/01/20 07:33:07;;;;;;;28.10;17.42;;;;;;;0.28;84.04;99441.31;4233213;27;20238;-80
2024/01/20 07:35:12;;;;;;;26.25;16.25;;;;;;;0.27;84.26;99445.59;4219816;28;20215;-80
2024/01/20 07:37:15;;;;;;;30.85;18.38;;;;;;;0.27;83.91;99444.72;4232374;27;20247;-80
2024/01/20 07:39:18;;;;;;;32.63;18.10;;;;;;;0.27;84.57;99447.28;4245652;27;20298;-79
2024/01/20 07:41:22;;;;;;;33.15;18.83;;;;;;;0.28;85.01;99441.31;4236702;27;20637;-79
2024/01/20 07:43:25;;;;;;;34.30;18.42;;;;;;;0.31;84.75;99443.84;4240327;27;20227;-79
2024/01/20 07:45:28;;;;;;;30.67;16.90;;;;;;;0.33;84.90;99454.94;4238894;27;21010;-79
2024/01/20 07:47:31;;;;;;;29.70;18.23;;;;;;;0.29;84.57;99443.00;4260128;27;20267;-79
2024/01/20 07:49:33;;;;;;;28.58;17.13;;;;;;;0.29;84.31;99438.72;4236078;27;20580;-79
2024/01/20 07:51:38;;;;;;;30.98;16.63;;;;;;;0.23;84.07;99440.50;4237212;27;20216;-81
2024/01/20 07:53:41;;;;;;;30.90;18.42;;;;;;;0.27;83.58;99442.16;4229905;27;20678;-80
2024/01/20 07:55:44;;;;;;;32.13;18.58;;;;;;;0.28;83.65;99449.84;4252555;27;20628;-80
2024/01/20 07:57:47;;;;;;;32.33;19.23;;;;;;;0.32;84.38;99443.00;4251822;27;20583;-79
2024/01/20 07:59:50;;;;;;;31.17;17.73;;;;;;;0.33;83.52;99442.13;4229613;27;20203;-79
2024/01/20 08:01:56;;;;;;;30.27;17.60;;;;;;;0.35;84.26;99450.66;4215954;28;20197;-80
2024/01/20 08:03:59;;;;;;;34.50;18.58;;;;;;;0.38;84.10;99450.66;4238797;27;20298;-79
2024/01/20 08:06:02;;;;;;;31.30;18.13;;;;;;;0.41;83.83;99450.59;4252042;27;20211;-81
2024/01/20 08:08:10;;;;;;;32.65;18.00;;;;;;;0.46;83.49;99460.81;4234578;27;20206;-81
2024/01/20 08:10:13;;;;;;;28.67;16.65;;;;;;;0.43;84.03;99460.00;4231594;27;20199;-81
2024/01/20 08:12:17;;;;;;;28.50;16.52;;;;;;;0.39;83.06;99455.75;4242736;27;20615;-82
2024/01/20 08:14:22;;;;;;;28.25;15.93;;;;;;;0.30;82.64;99445.56;4233625;27;20200;-81
2024/01/20 08:16:28;;;;;;;28.00;16.60;;;;;;;0.24;82.40;99444.72;4256690;27;20199;-81
2024/01/20 08:18:31;;;;;;;25.80;15.68;;;;;;;0.23;83.25;99446.47;4256909;27;20211;-81
2024/01/20 08:20:35;;;;;;;31.58;17.40;;;;;;;0.23;82.58;99445.63;4226994;27;20199;-83
2024/01/20 08:22:38;;;;;;;24.65;14.60;;;;;;;0.26;83.00;99459.25;4253940;27;20252;-80
2024/01/20 08:24:42;;;;;;;32.63;16.90;;;;;;;0.29;83.49;99456.69;4222927;27;20228;-82
2024/01/20 08:26:46;;;;;;;29.00;16.15;;;;;;;0.34;83.89;99469.47;4237935;27;20361;-81
2024/01/20 08:28:49;;;;;;;36.10;18.80;;;;;;;0.39;83.70;99467.72;4237064;27;20330;-83
2024/01/20 08:30:52;;;;;;;29.95;17.30;;;;;;;0.50;83.21;99475.34;4222424;27;20211;-82
2024/01/20 08:32:56;;;;;;;30.02;17.20;;;;;;;0.55;83.73;99478.72;4256468;27;20198;-82
2024/01/20 08:35:04;;;;;;;31.98;17.48;;;;;;;0.62;83.59;99482.09;4255320;27;20210;-82
2024/01/20 08:37:08;;;;;;;31.13;17.23;;;;;;;0.69;83.47;99488.88;4224901;28;20341;-83
2024/01/20 08:39:10;;;;;;;26.95;16.02;;;;;;;0.77;82.87;99487.97;4232031;27;20231;-81
2024/01/20 08:41:15;;;;;;;29.63;17.13;;;;;;;0.80;82.66;99503.34;4224223;28;20200;-82
2024/01/20 08:43:19;;;;;;;27.38;17.23;;;;;;;0.83;82.32;99500.75;4252664;27;20213;-89
2024/01/20 08:45:21;;;;;;;27.65;15.77;;;;;;;0.85;81.97;99496.47;4249814;27;20231;-86
2024/01/20 08:47:24;;;;;;;22.30;14.80;;;;;;;0.83;81.06;99498.19;4250576;27;20210;-86
2024/01/20 08:49:26;;;;;;;26.52;16.60;;;;;;;0.82;81.39;99503.34;4254645;27;20211;-85
2024/01/20 08:51:29;;;;;;;26.23;15.32;;;;;;;0.85;81.11;99511.03;4237736;27;20200;-85
2024/01/20 08:53:34;;;;;;;27.42;16.98;;;;;;;0.94;81.15;99522.06;4239610;27;20254;-85
2024/01/20 08:55:38;;;;;;;29.48;17.38;;;;;;;0.93;80.67;99515.22;4236334;27;20211;-84
2024/01/20 08:57:42;;;;;;;31.35;17.23;;;;;;;0.92;80.08;99517.78;4211992;27;20222;-84
2024/01/20 08:59:45;;;;;;;30.50;16.50;;;;;;;0.86;79.55;99526.41;4244863;27;20212;-83
2024/01/20 09:01:49;;;;;;;30.98;17.23;;;;;;;0.82;79.66;99532.41;4209575;28;20207;-84
2024/01/20 09:03:52;;;;;;;28.88;15.52;;;;;;;0.69;80.04;99519.69;4232945;27;20233;-83
2024/01/20 09:05:56;;;;;;;29.10;17.48;;;;;;;0.82;80.42;99517.00;4217850;27;20204;-83
2024/01/20 09:07:59;;;;;;;30.50;16.35;;;;;;;1.02;80.53;99530.53;4247380;27;20333;-84
2024/01/20 09:10:03;;;;;;;32.65;17.83;;;;;;;1.17;81.08;99527.84;4249891;27;20302;-83
2024/01/20 09:12:07;;;;;;;26.23;16.50;;;;;;;1.25;80.21;99529.50;4248896;27;20209;-84
2024/01/20 09:14:12;;;;;;;27.63;18.00;;;;;;;1.39;78.60;99525.09;4231069;27;20279;-84
2024/01/20 09:16:15;;;;;;;33.80;19.20;;;;;;;1.47;79.57;99528.41;4249454;27;20858;-83
2024/01/20 09:18:19;;;;;;;29.77;16.83;;;;;;;1.64;79.48;99537.69;4236660;27;20724;-83
2024/01/20 09:20:25;;;;;;;32.53;17.52;;;;;;;1.82;79.23;99539.19;4234305;27;20203;-83
2024/01/20 09:22:28;;;;;;;30.02;17.50;;;;;;;1.89;79.05;99528.81;4219398;27;20228;-84
2024/01/20 09:24:31;;;;;;;31.27;19.08;;;;;;;1.98;79.11;99532.13;4245964;27;20226;-83
2024/01/20 09:26:34;;;;;;;29.92;17.52;;;;;;;2.09;78.46;99543.16;4226781;27;20204;-84
2024/01/20 09:28:37;;;;;;;38.53;18.90;;;;;;;2.18;79.11;99544.75;4228694;27;20310;-84
2024/01/20 09:30:41;;;;;;;27.85;16.75;;;;;;;2.27;79.13;99536.94;4235605;27;20320;-84
2024/01/20 09:32:43;;;;;;;26.70;17.00;;;;;;;2.30;78.38;99536.88;4254809;27;20241;-84
2024/01/20 09:34:47;;;;;;;31.13;16.98;;;;;;;2.37;78.49;99535.06;4246763;27;20614;-83
2024/01/20 09:36:50;;;;;;;29.27;16.30;;;;;;;2.45;78.32;99543.56;4247422;27;20590;-84